createdAt,value
2019-05-02T00:00:23.827Z,0
2019-05-02T00:01:23.786Z,0
2019-05-02T00:02:28.382Z,0
2019-05-02T00:03:23.728Z,0
2019-05-02T00:04:23.857Z,0
2019-05-02T00:05:27.404Z,0
2019-05-02T00:06:23.855Z,0
2019-05-02T00:07:23.900Z,0
2019-05-02T00:08:23.827Z,0
2019-05-02T00:09:23.736Z,0
2019-05-02T00:10:24.896Z,0
2019-05-02T00:11:23.862Z,0
2019-05-02T00:12:23.916Z,0
2019-05-02T00:13:23.740Z,0
2019-05-02T00:14:23.803Z,0
2019-05-02T00:15:23.866Z,0
2019-05-02T00:16:23.870Z,0
2019-05-02T00:17:25.687Z,0
2019-05-02T00:18:23.869Z,0
2019-05-02T00:19:23.869Z,0
2019-05-02T00:20:25.944Z,0
2019-05-02T00:21:23.772Z,0
2019-05-02T00:22:23.842Z,0
2019-05-02T00:23:28.059Z,0
2019-05-02T00:24:23.838Z,0
2019-05-02T00:25:23.837Z,0
2019-05-02T00:26:24.810Z,0
2019-05-02T00:27:23.918Z,0
2019-05-02T00:28:23.777Z,0
2019-05-02T00:29:25.019Z,0
2019-05-02T00:30:23.844Z,0
2019-05-02T00:31:23.867Z,0
2019-05-02T00:32:23.785Z,0
2019-05-02T00:33:23.871Z,0
2019-05-02T00:34:23.848Z,0
2019-05-02T00:35:23.793Z,0
2019-05-02T00:36:23.849Z,0
2019-05-02T00:37:24.577Z,0
2019-05-02T00:38:23.855Z,0
2019-05-02T00:39:23.788Z,0
2019-05-02T00:40:25.725Z,0
2019-05-02T00:41:23.729Z,0
2019-05-02T00:42:24.088Z,0
2019-05-02T00:43:23.781Z,0
2019-05-02T00:44:23.851Z,0
2019-05-02T00:45:25.598Z,0
2019-05-02T00:46:23.842Z,0
2019-05-02T00:47:23.873Z,0
2019-05-02T00:48:24.425Z,0
2019-05-02T00:49:23.855Z,0
2019-05-02T00:50:23.764Z,0
2019-05-02T00:51:26.783Z,0
2019-05-02T00:52:23.892Z,0
2019-05-02T00:53:23.935Z,0
2019-05-02T00:54:25.229Z,0
2019-05-02T00:55:23.857Z,0
2019-05-02T00:56:23.893Z,0
2019-05-02T00:57:23.888Z,0
2019-05-02T00:58:27.257Z,0
2019-05-02T00:59:23.896Z,0
2019-05-02T01:00:23.779Z,0
2019-05-02T01:01:28.932Z,0
2019-05-02T01:02:23.835Z,0
2019-05-02T01:03:23.806Z,0
2019-05-02T01:04:27.549Z,0
2019-05-02T01:05:23.792Z,0
2019-05-02T01:06:23.872Z,0
2019-05-02T01:07:25.637Z,0
2019-05-02T01:08:23.893Z,0
2019-05-02T01:09:23.908Z,0
2019-05-02T01:10:23.842Z,0
2019-05-02T01:11:28.339Z,0
2019-05-02T01:12:26.484Z,0
2019-05-02T01:13:23.815Z,0
2019-05-02T01:14:27.186Z,0
2019-05-02T01:15:23.875Z,0
2019-05-02T01:16:23.817Z,0
2019-05-02T01:17:26.100Z,0
2019-05-02T01:18:23.881Z,0
2019-05-02T01:19:23.809Z,0
2019-05-02T01:20:27.674Z,0
2019-05-02T01:21:23.835Z,0
2019-05-02T01:22:23.832Z,0
2019-05-02T01:23:27.613Z,0
2019-05-02T01:24:23.786Z,0
2019-05-02T01:25:23.880Z,0
2019-05-02T01:26:24.187Z,0
2019-05-02T01:27:23.941Z,0
2019-05-02T01:28:23.785Z,0
2019-05-02T01:29:24.829Z,0
2019-05-02T01:30:23.879Z,0
2019-05-02T01:31:23.880Z,0
2019-05-02T01:32:25.245Z,0
2019-05-02T01:33:23.844Z,0
2019-05-02T01:34:23.821Z,0
2019-05-02T01:35:27.070Z,0
2019-05-02T01:36:23.778Z,0
2019-05-02T01:37:23.827Z,0
2019-05-02T01:38:26.266Z,0
2019-05-02T01:39:23.839Z,0
2019-05-02T01:40:23.825Z,0
2019-05-02T01:41:28.806Z,0
2019-05-02T01:42:23.840Z,0
2019-05-02T01:43:25.339Z,0
2019-05-02T01:44:23.797Z,0
2019-05-02T01:45:23.855Z,0
2019-05-02T01:46:24.178Z,0
2019-05-02T01:47:23.722Z,0
2019-05-02T01:48:23.855Z,0
2019-05-02T01:49:23.789Z,0
2019-05-02T01:50:23.798Z,0
2019-05-02T01:51:23.834Z,0
2019-05-02T01:52:25.001Z,0
2019-05-02T01:53:23.831Z,0
2019-05-02T01:54:23.941Z,0
2019-05-02T01:55:23.946Z,0
2019-05-02T01:56:23.863Z,0
2019-05-02T01:57:23.945Z,0
2019-05-02T01:58:23.885Z,0
2019-05-02T01:59:23.889Z,0
2019-05-02T02:00:23.870Z,0
2019-05-02T02:01:23.914Z,0
2019-05-02T02:02:28.084Z,0
2019-05-02T02:03:23.874Z,0
2019-05-02T02:04:23.819Z,0
2019-05-02T02:05:27.626Z,0
2019-05-02T02:06:23.793Z,0
2019-05-02T02:07:23.841Z,0
2019-05-02T02:08:27.216Z,0
2019-05-02T02:09:23.863Z,0
2019-05-02T02:10:23.845Z,0
2019-05-02T02:11:28.332Z,0
2019-05-02T02:12:23.942Z,0
2019-05-02T02:13:23.938Z,0
2019-05-02T02:14:23.870Z,0
2019-05-02T02:15:25.109Z,0
2019-05-02T02:16:23.920Z,0
2019-05-02T02:17:23.939Z,0
2019-05-02T02:18:27.498Z,0
2019-05-02T02:19:23.949Z,0
2019-05-02T02:20:23.956Z,0
2019-05-02T02:21:25.829Z,0
2019-05-02T02:22:23.922Z,0
2019-05-02T02:23:23.867Z,0
2019-05-02T02:24:25.261Z,0
2019-05-02T02:25:23.853Z,0
2019-05-02T02:26:23.944Z,0
2019-05-02T02:27:24.649Z,0
2019-05-02T02:28:23.865Z,0
2019-05-02T02:29:23.867Z,0
2019-05-02T02:30:26.360Z,0
2019-05-02T02:31:23.876Z,0
2019-05-02T02:32:27.090Z,0
2019-05-02T02:33:23.902Z,0
2019-05-02T02:34:29.069Z,0
2019-05-02T02:35:23.896Z,0
2019-05-02T02:36:31.482Z,0
2019-05-02T02:37:23.977Z,0
2019-05-02T02:38:26.937Z,0
2019-05-02T02:39:23.933Z,0
2019-05-02T02:40:33.009Z,0
2019-05-02T02:41:23.960Z,0
2019-05-02T02:42:24.930Z,0
2019-05-02T02:43:33.918Z,0
2019-05-02T02:44:23.942Z,0
2019-05-02T02:45:23.980Z,0
2019-05-02T02:46:23.971Z,0
2019-05-02T02:47:23.876Z,0
2019-05-02T02:48:23.980Z,0
2019-05-02T02:49:24.673Z,0
2019-05-02T02:50:23.908Z,0
2019-05-02T02:51:26.224Z,0
2019-05-02T02:52:23.929Z,0
2019-05-02T02:53:25.633Z,0
2019-05-02T02:54:23.873Z,0
2019-05-02T02:55:24.536Z,0
2019-05-02T02:56:23.977Z,0
2019-05-02T02:57:28.179Z,0
2019-05-02T02:58:23.960Z,0
2019-05-02T02:59:26.396Z,0
2019-05-02T03:00:23.977Z,0
2019-05-02T03:01:28.881Z,0
2019-05-02T03:02:23.887Z,0
2019-05-02T03:03:27.819Z,0
2019-05-02T03:04:23.963Z,0
2019-05-02T03:05:26.275Z,0
2019-05-02T03:06:23.975Z,0
2019-05-02T03:07:25.787Z,0
2019-05-02T03:08:23.968Z,0
2019-05-02T03:09:26.877Z,0
2019-05-02T03:10:23.995Z,0
2019-05-02T03:11:25.518Z,0
2019-05-02T03:12:23.752Z,0
2019-05-02T03:13:24.235Z,0
2019-05-02T03:14:23.857Z,0
2019-05-02T03:15:27.833Z,0
2019-05-02T03:16:23.865Z,0
2019-05-02T03:17:26.544Z,0
2019-05-02T03:18:27.096Z,0
2019-05-02T03:19:23.865Z,0
2019-05-02T03:20:23.964Z,0
2019-05-02T03:21:23.865Z,0
2019-05-02T03:22:23.869Z,0
2019-05-02T03:23:24.136Z,0
2019-05-02T03:24:23.874Z,0
2019-05-02T03:25:26.933Z,0
2019-05-02T03:26:23.964Z,0
2019-05-02T03:27:29.678Z,0
2019-05-02T03:28:24.001Z,0
2019-05-02T03:29:23.982Z,0
2019-05-02T03:30:31.695Z,0
2019-05-02T03:31:29.528Z,0
2019-05-02T03:32:33.702Z,0
2019-05-02T03:33:23.984Z,0
2019-05-02T03:34:23.959Z,0
2019-05-02T03:35:40.325Z,0
2019-05-02T03:36:30.079Z,0
2019-05-02T03:37:23.937Z,0
2019-05-02T03:38:31.432Z,0
2019-05-02T03:39:23.939Z,0
2019-05-02T03:40:23.894Z,0
2019-05-02T03:41:23.987Z,0
2019-05-02T03:42:23.931Z,0
2019-05-02T03:43:25.708Z,0
2019-05-02T03:44:26.089Z,0
2019-05-02T03:45:23.986Z,0
2019-05-02T03:46:23.929Z,0
2019-05-02T03:47:24.010Z,0
2019-05-02T03:48:25.703Z,0
2019-05-02T03:49:23.924Z,5
2019-05-02T03:50:31.606Z,5
2019-05-02T03:51:25.146Z,5
2019-05-02T03:52:24.030Z,5
2019-05-02T03:53:25.656Z,5
2019-05-02T03:54:23.961Z,5
2019-05-02T03:55:30.887Z,5
2019-05-02T03:56:23.965Z,5
2019-05-02T03:57:31.661Z,5
2019-05-02T03:58:23.995Z,11
2019-05-02T03:59:37.496Z,11
2019-05-02T04:00:24.559Z,11
2019-05-02T04:01:24.019Z,11
2019-05-02T04:02:24.001Z,11
2019-05-02T04:03:24.035Z,11
2019-05-02T04:04:24.048Z,16
2019-05-02T04:05:24.046Z,16
2019-05-02T04:06:24.003Z,16
2019-05-02T04:07:24.030Z,16
2019-05-02T04:08:23.911Z,22
2019-05-02T04:09:24.049Z,22
2019-05-02T04:10:23.974Z,28
2019-05-02T04:11:23.961Z,33
2019-05-02T04:12:24.009Z,33
2019-05-02T04:13:23.945Z,33
2019-05-02T04:14:37.417Z,33
2019-05-02T04:15:28.661Z,33
2019-05-02T04:16:23.972Z,39
2019-05-02T04:17:28.676Z,45
2019-05-02T04:18:24.016Z,45
2019-05-02T04:19:28.852Z,50
2019-05-02T04:20:24.028Z,50
2019-05-02T04:21:26.028Z,56
2019-05-02T04:22:23.974Z,56
2019-05-02T04:23:27.529Z,61
2019-05-02T04:24:24.038Z,67
2019-05-02T04:25:28.072Z,73
2019-05-02T04:26:24.018Z,73
2019-05-02T04:27:27.707Z,67
2019-05-02T04:28:23.992Z,67
2019-05-02T04:29:24.528Z,73
2019-05-02T04:30:23.974Z,78
2019-05-02T04:31:25.002Z,90
2019-05-02T04:32:24.019Z,95
2019-05-02T04:33:28.994Z,106
2019-05-02T04:34:24.020Z,101
2019-05-02T04:35:28.861Z,90
2019-05-02T04:36:24.034Z,101
2019-05-02T04:37:24.026Z,123
2019-05-02T04:38:39.087Z,135
2019-05-02T04:39:23.955Z,135
2019-05-02T04:40:24.028Z,135
2019-05-02T04:41:28.718Z,140
2019-05-02T04:42:24.006Z,140
2019-05-02T04:43:24.003Z,151
2019-05-02T04:44:32.413Z,146
2019-05-02T04:45:29.342Z,135
2019-05-02T04:46:28.014Z,140
2019-05-02T04:47:24.061Z,157
2019-05-02T04:48:23.987Z,157
2019-05-02T04:49:32.901Z,151
2019-05-02T04:50:25.358Z,146
2019-05-02T04:51:27.468Z,146
2019-05-02T04:52:24.037Z,140
2019-05-02T04:53:25.982Z,151
2019-05-02T04:54:31.424Z,151
2019-05-02T04:55:30.278Z,151
2019-05-02T04:56:24.055Z,151
2019-05-02T04:57:27.165Z,151
2019-05-02T04:58:29.680Z,163
2019-05-02T04:59:23.978Z,185
2019-05-02T05:00:24.051Z,191
2019-05-02T05:01:24.054Z,191
2019-05-02T05:02:31.192Z,208
2019-05-02T05:03:24.013Z,219
2019-05-02T05:04:23.982Z,202
2019-05-02T05:05:25.655Z,202
2019-05-02T05:06:24.056Z,196
2019-05-02T05:07:24.054Z,196
2019-05-02T05:08:26.529Z,196
2019-05-02T05:09:24.002Z,202
2019-05-02T05:10:23.956Z,213
2019-05-02T05:11:24.947Z,230
2019-05-02T05:12:23.990Z,219
2019-05-02T05:13:26.527Z,196
2019-05-02T05:14:24.063Z,185
2019-05-02T05:15:37.153Z,185
2019-05-02T05:16:24.065Z,185
2019-05-02T05:17:25.056Z,185
2019-05-02T05:18:23.947Z,180
2019-05-02T05:19:28.716Z,174
2019-05-02T05:20:24.077Z,174
2019-05-02T05:21:25.005Z,174
2019-05-02T05:22:24.065Z,180
2019-05-02T05:23:24.072Z,174
2019-05-02T05:24:25.029Z,168
2019-05-02T05:25:24.079Z,163
2019-05-02T05:26:24.064Z,168
2019-05-02T05:27:24.070Z,180
2019-05-02T05:28:24.071Z,191
2019-05-02T05:29:24.071Z,196
2019-05-02T05:30:24.124Z,202
2019-05-02T05:31:25.728Z,202
2019-05-02T05:32:24.085Z,202
2019-05-02T05:33:24.076Z,202
2019-05-02T05:34:28.490Z,208
2019-05-02T05:35:24.040Z,213
2019-05-02T05:36:29.187Z,208
2019-05-02T05:37:24.004Z,225
2019-05-02T05:38:28.583Z,236
2019-05-02T05:39:24.007Z,236
2019-05-02T05:40:30.379Z,230
2019-05-02T05:41:24.090Z,225
2019-05-02T05:42:30.193Z,236
2019-05-02T05:43:23.997Z,236
2019-05-02T05:44:30.631Z,225
2019-05-02T05:45:23.997Z,247
2019-05-02T05:46:24.073Z,253
2019-05-02T05:47:24.005Z,264
2019-05-02T05:48:24.072Z,253
2019-05-02T05:49:24.001Z,230
2019-05-02T05:50:24.079Z,219
2019-05-02T05:51:24.001Z,225
2019-05-02T05:52:24.019Z,230
2019-05-02T05:53:24.552Z,219
2019-05-02T05:54:24.170Z,219
2019-05-02T05:55:24.581Z,213
2019-05-02T05:56:24.013Z,213
2019-05-02T05:57:24.085Z,213
2019-05-02T05:58:24.012Z,208
2019-05-02T05:59:28.063Z,225
2019-05-02T06:00:24.020Z,230
2019-05-02T06:01:25.968Z,225
2019-05-02T06:02:24.101Z,219
2019-05-02T06:03:24.084Z,225
2019-05-02T06:04:30.141Z,253
2019-05-02T06:05:24.029Z,253
2019-05-02T06:06:24.564Z,253
2019-05-02T06:07:24.111Z,264
2019-05-02T06:08:24.109Z,275
2019-05-02T06:09:26.435Z,286
2019-05-02T06:10:24.101Z,309
2019-05-02T06:11:24.099Z,331
2019-05-02T06:12:26.178Z,326
2019-05-02T06:13:24.092Z,331
2019-05-02T06:14:24.894Z,337
2019-05-02T06:15:24.040Z,348
2019-05-02T06:16:24.104Z,365
2019-05-02T06:17:28.644Z,371
2019-05-02T06:18:24.047Z,376
2019-05-02T06:19:24.131Z,388
2019-05-02T06:20:25.650Z,399
2019-05-02T06:21:24.045Z,399
2019-05-02T06:22:25.418Z,433
2019-05-02T06:23:24.107Z,478
2019-05-02T06:24:24.122Z,495
2019-05-02T06:25:32.567Z,556
2019-05-02T06:26:24.163Z,579
2019-05-02T06:27:26.065Z,568
2019-05-02T06:28:24.057Z,590
2019-05-02T06:29:24.118Z,568
2019-05-02T06:30:27.082Z,601
2019-05-02T06:31:24.116Z,646
2019-05-02T06:32:24.113Z,691
2019-05-02T06:33:25.936Z,770
2019-05-02T06:34:24.049Z,748
2019-05-02T06:35:24.124Z,731
2019-05-02T06:36:24.122Z,770
2019-05-02T06:37:24.119Z,832
2019-05-02T06:38:24.121Z,725
2019-05-02T06:39:27.069Z,675
2019-05-02T06:40:24.125Z,770
2019-05-02T06:41:24.069Z,793
2019-05-02T06:42:27.612Z,810
2019-05-02T06:43:24.061Z,787
2019-05-02T06:44:25.446Z,759
2019-05-02T06:45:24.014Z,781
2019-05-02T06:46:27.436Z,781
2019-05-02T06:47:24.081Z,838
2019-05-02T06:48:24.064Z,787
2019-05-02T06:49:25.945Z,793
2019-05-02T06:50:24.843Z,815
2019-05-02T06:51:24.030Z,759
2019-05-02T06:52:27.215Z,725
2019-05-02T06:53:24.029Z,759
2019-05-02T06:54:24.145Z,810
2019-05-02T06:55:27.800Z,708
2019-05-02T06:56:24.116Z,675
2019-05-02T06:57:25.806Z,646
2019-05-02T06:58:24.088Z,607
2019-05-02T06:59:24.070Z,607
2019-05-02T07:00:35.708Z,641
2019-05-02T07:01:24.002Z,680
2019-05-02T07:02:28.282Z,731
2019-05-02T07:03:24.071Z,714
2019-05-02T07:04:25.054Z,663
2019-05-02T07:05:27.180Z,652
2019-05-02T07:06:24.424Z,658
2019-05-02T07:07:25.122Z,658
2019-05-02T07:08:24.042Z,675
2019-05-02T07:09:24.489Z,720
2019-05-02T07:10:25.367Z,821
2019-05-02T07:11:24.097Z,950
2019-05-02T07:12:24.086Z,978
2019-05-02T07:13:24.153Z,1018
2019-05-02T07:14:25.634Z,1074
2019-05-02T07:15:24.176Z,1186
2019-05-02T07:16:37.647Z,1237
2019-05-02T07:17:26.659Z,1327
2019-05-02T07:18:24.044Z,1231
2019-05-02T07:19:27.534Z,1203
2019-05-02T07:20:24.154Z,1046
2019-05-02T07:21:24.158Z,1046
2019-05-02T07:22:24.081Z,1141
2019-05-02T07:23:24.157Z,1130
2019-05-02T07:24:25.251Z,1276
2019-05-02T07:25:24.157Z,1181
2019-05-02T07:26:24.085Z,1057
2019-05-02T07:27:28.405Z,978
2019-05-02T07:28:24.315Z,984
2019-05-02T07:29:24.101Z,1018
2019-05-02T07:30:24.168Z,1164
2019-05-02T07:31:24.093Z,1293
2019-05-02T07:32:25.099Z,1226
2019-05-02T07:33:24.160Z,1068
2019-05-02T07:34:24.166Z,978
2019-05-02T07:35:25.810Z,967
2019-05-02T07:36:24.127Z,933
2019-05-02T07:37:24.095Z,877
2019-05-02T07:38:25.705Z,900
2019-05-02T07:39:24.169Z,888
2019-05-02T07:40:24.111Z,838
2019-05-02T07:41:28.568Z,793
2019-05-02T07:42:24.097Z,793
2019-05-02T07:43:24.166Z,804
2019-05-02T07:44:27.207Z,781
2019-05-02T07:45:24.090Z,776
2019-05-02T07:46:24.204Z,781
2019-05-02T07:47:24.173Z,753
2019-05-02T07:48:24.100Z,748
2019-05-02T07:49:26.524Z,849
2019-05-02T07:50:24.112Z,922
2019-05-02T07:51:24.182Z,843
2019-05-02T07:52:24.176Z,731
2019-05-02T07:53:24.106Z,675
2019-05-02T07:54:24.975Z,675
2019-05-02T07:55:24.106Z,703
2019-05-02T07:56:24.108Z,714
2019-05-02T07:57:25.136Z,736
2019-05-02T07:58:24.108Z,793
2019-05-02T07:59:25.131Z,810
2019-05-02T08:00:24.180Z,877
2019-05-02T08:01:24.183Z,900
2019-05-02T08:02:25.175Z,1001
2019-05-02T08:03:24.114Z,1130
2019-05-02T08:04:24.113Z,1141
2019-05-02T08:05:24.187Z,1029
2019-05-02T08:06:34.624Z,1023
2019-05-02T08:07:27.154Z,973
2019-05-02T08:08:24.997Z,905
2019-05-02T08:09:24.186Z,900
2019-05-02T08:10:24.188Z,916
2019-05-02T08:11:24.187Z,905
2019-05-02T08:12:24.119Z,922
2019-05-02T08:13:24.183Z,911
2019-05-02T08:14:24.107Z,950
2019-05-02T08:15:24.786Z,1029
2019-05-02T08:16:27.436Z,1085
2019-05-02T08:17:24.182Z,1141
2019-05-02T08:18:25.279Z,1209
2019-05-02T08:19:24.112Z,1276
2019-05-02T08:20:24.183Z,1361
2019-05-02T08:21:27.406Z,1400
2019-05-02T08:22:24.189Z,1366
2019-05-02T08:23:25.907Z,1350
2019-05-02T08:24:24.154Z,1366
2019-05-02T08:25:24.130Z,1260
2019-05-02T08:26:24.201Z,1181
2019-05-02T08:27:24.147Z,1085
2019-05-02T08:28:24.202Z,984
2019-05-02T08:29:28.744Z,950
2019-05-02T08:30:24.201Z,939
2019-05-02T08:31:24.206Z,905
2019-05-02T08:32:24.224Z,888
2019-05-02T08:33:24.169Z,883
2019-05-02T08:34:24.251Z,838
2019-05-02T08:35:24.141Z,815
2019-05-02T08:36:24.212Z,866
2019-05-02T08:37:24.136Z,945
2019-05-02T08:38:24.209Z,933
2019-05-02T08:39:25.885Z,922
2019-05-02T08:40:24.145Z,905
2019-05-02T08:41:24.214Z,866
2019-05-02T08:42:27.749Z,832
2019-05-02T08:43:24.129Z,826
2019-05-02T08:44:24.127Z,781
2019-05-02T08:45:24.202Z,736
2019-05-02T08:46:24.145Z,703
2019-05-02T08:47:28.699Z,708
2019-05-02T08:48:24.204Z,742
2019-05-02T08:49:24.132Z,781
2019-05-02T08:50:27.153Z,810
2019-05-02T08:51:24.200Z,821
2019-05-02T08:52:24.144Z,810
2019-05-02T08:53:24.180Z,798
2019-05-02T08:54:27.966Z,787
2019-05-02T08:55:24.281Z,748
2019-05-02T08:56:24.167Z,714
2019-05-02T08:57:24.364Z,720
2019-05-02T08:58:24.225Z,742
2019-05-02T08:59:24.900Z,736
2019-05-02T09:00:24.223Z,748
2019-05-02T09:01:34.629Z,798
2019-05-02T09:02:25.955Z,826
2019-05-02T09:03:24.229Z,849
2019-05-02T09:04:28.920Z,815
2019-05-02T09:05:24.229Z,776
2019-05-02T09:06:24.245Z,826
2019-05-02T09:07:24.283Z,961
2019-05-02T09:08:24.160Z,956
2019-05-02T09:09:27.965Z,888
2019-05-02T09:10:24.235Z,888
2019-05-02T09:11:24.235Z,877
2019-05-02T09:12:24.173Z,871
2019-05-02T09:13:29.155Z,894
2019-05-02T09:14:24.128Z,945
2019-05-02T09:15:24.095Z,967
2019-05-02T09:16:28.887Z,1051
2019-05-02T09:17:35.102Z,1113
2019-05-02T09:18:30.162Z,1091
2019-05-02T09:19:26.356Z,1001
2019-05-02T09:20:24.162Z,978
2019-05-02T09:21:26.774Z,950
2019-05-02T09:22:24.146Z,928
2019-05-02T09:23:27.596Z,922
2019-05-02T09:24:24.213Z,933
2019-05-02T09:25:24.137Z,945
2019-05-02T09:26:35.146Z,956
2019-05-02T09:27:24.124Z,961
2019-05-02T09:28:25.498Z,973
2019-05-02T09:29:24.186Z,956
2019-05-02T09:30:25.803Z,995
2019-05-02T09:31:24.219Z,1006
2019-05-02T09:32:26.215Z,1018
2019-05-02T09:33:24.193Z,1096
2019-05-02T09:34:26.647Z,1175
2019-05-02T09:35:24.293Z,1260
2019-05-02T09:36:24.182Z,1293
2019-05-02T09:37:24.184Z,1299
2019-05-02T09:38:24.184Z,1411
2019-05-02T09:39:27.287Z,1434
2019-05-02T09:40:24.514Z,1338
2019-05-02T09:41:26.973Z,1164
2019-05-02T09:42:24.261Z,1096
2019-05-02T09:43:24.204Z,1074
2019-05-02T09:44:24.268Z,1018
2019-05-02T09:45:27.739Z,956
2019-05-02T09:46:24.188Z,945
2019-05-02T09:47:27.273Z,973
2019-05-02T09:48:26.829Z,1040
2019-05-02T09:49:24.269Z,1085
2019-05-02T09:50:29.359Z,1012
2019-05-02T09:51:24.198Z,1006
2019-05-02T09:52:24.293Z,990
2019-05-02T09:53:25.434Z,978
2019-05-02T09:54:24.211Z,995
2019-05-02T09:55:24.213Z,984
2019-05-02T09:56:24.283Z,995
2019-05-02T09:57:24.167Z,1023
2019-05-02T09:58:24.226Z,1074
2019-05-02T09:59:29.974Z,1125
2019-05-02T10:00:26.666Z,1068
2019-05-02T10:01:24.278Z,1102
2019-05-02T10:02:25.293Z,1158
2019-05-02T10:03:24.195Z,1057
2019-05-02T10:04:24.186Z,1040
2019-05-02T10:05:24.273Z,1035
2019-05-02T10:06:24.184Z,1046
2019-05-02T10:07:24.274Z,1063
2019-05-02T10:08:24.197Z,1046
2019-05-02T10:09:27.229Z,1029
2019-05-02T10:10:24.194Z,1040
2019-05-02T10:11:26.099Z,1006
2019-05-02T10:12:24.268Z,995
2019-05-02T10:13:24.287Z,984
2019-05-02T10:14:24.209Z,1001
2019-05-02T10:15:24.290Z,984
2019-05-02T10:16:27.322Z,950
2019-05-02T10:17:24.302Z,973
2019-05-02T10:18:29.917Z,1012
2019-05-02T10:19:26.096Z,1063
2019-05-02T10:20:34.103Z,1068
2019-05-02T10:21:24.284Z,1057
2019-05-02T10:22:26.557Z,1018
2019-05-02T10:23:24.359Z,978
2019-05-02T10:24:24.215Z,984
2019-05-02T10:25:24.350Z,1012
2019-05-02T10:26:24.755Z,1035
2019-05-02T10:27:24.233Z,1057
2019-05-02T10:28:24.277Z,1074
2019-05-02T10:29:28.527Z,1057
2019-05-02T10:30:24.241Z,1057
2019-05-02T10:31:27.504Z,1046
2019-05-02T10:32:24.277Z,1080
2019-05-02T10:33:28.063Z,1125
2019-05-02T10:34:24.413Z,1175
2019-05-02T10:35:28.070Z,1215
2019-05-02T10:36:24.223Z,1248
2019-05-02T10:37:24.295Z,1428
2019-05-02T10:38:24.240Z,1451
2019-05-02T10:39:28.344Z,1406
2019-05-02T10:40:24.303Z,1361
2019-05-02T10:41:24.254Z,1411
2019-05-02T10:42:24.312Z,1490
2019-05-02T10:43:24.256Z,1490
2019-05-02T10:44:27.187Z,1681
2019-05-02T10:45:24.204Z,1563
2019-05-02T10:46:27.841Z,1428
2019-05-02T10:47:24.305Z,1597
2019-05-02T10:48:28.274Z,2070
2019-05-02T10:49:24.262Z,1951
2019-05-02T10:50:24.260Z,1732
2019-05-02T10:51:26.247Z,1693
2019-05-02T10:52:29.460Z,1766
2019-05-02T10:53:24.312Z,1833
2019-05-02T10:54:28.045Z,1856
2019-05-02T10:55:24.365Z,1856
2019-05-02T10:56:24.246Z,1738
2019-05-02T10:57:24.313Z,2300
2019-05-02T10:58:31.346Z,2486
2019-05-02T10:59:24.242Z,1861
2019-05-02T11:00:24.321Z,3251
2019-05-02T11:01:24.248Z,2463
2019-05-02T11:02:24.321Z,2469
2019-05-02T11:03:24.370Z,2143
2019-05-02T11:04:28.942Z,2193
2019-05-02T11:05:26.483Z,4595
2019-05-02T11:06:24.326Z,4741
2019-05-02T11:07:26.350Z,5062
2019-05-02T11:08:24.261Z,4950
2019-05-02T11:09:26.261Z,5355
2019-05-02T11:10:24.252Z,4978
2019-05-02T11:11:24.274Z,4719
2019-05-02T11:12:25.649Z,3459
2019-05-02T11:13:24.310Z,4989
2019-05-02T11:14:24.349Z,4972
2019-05-02T11:15:26.715Z,5056
2019-05-02T11:16:24.246Z,3605
2019-05-02T11:17:24.321Z,4910
2019-05-02T11:18:39.424Z,4342
2019-05-02T11:19:24.352Z,4978
2019-05-02T11:20:24.246Z,4910
2019-05-02T11:21:24.343Z,2362
2019-05-02T11:22:24.251Z,2323
2019-05-02T11:23:24.410Z,2581
2019-05-02T11:24:24.330Z,3611
2019-05-02T11:25:24.355Z,2373
2019-05-02T11:26:25.190Z,2120
2019-05-02T11:27:24.335Z,4280
2019-05-02T11:28:24.338Z,4640
2019-05-02T11:29:24.267Z,2565
2019-05-02T11:30:26.549Z,2210
2019-05-02T11:31:24.338Z,1726
2019-05-02T11:32:24.265Z,1620
2019-05-02T11:33:24.324Z,1552
2019-05-02T11:34:24.279Z,1468
2019-05-02T11:35:24.327Z,1687
2019-05-02T11:36:27.238Z,2221
2019-05-02T11:37:24.265Z,2109
2019-05-02T11:38:51.987Z,2058
2019-05-02T11:39:30.812Z,2171
2019-05-02T11:40:24.332Z,2008
2019-05-02T11:41:24.259Z,1873
2019-05-02T11:42:27.265Z,1918
2019-05-02T11:43:24.214Z,1901
2019-05-02T11:44:24.266Z,1676
2019-05-02T11:45:24.326Z,1586
2019-05-02T11:46:24.299Z,1771
2019-05-02T11:47:26.621Z,2126
2019-05-02T11:48:24.238Z,2081
2019-05-02T11:49:24.327Z,2356
2019-05-02T11:50:26.670Z,2671
2019-05-02T11:51:24.238Z,2542
2019-05-02T11:52:27.516Z,2064
2019-05-02T11:53:28.443Z,2025
2019-05-02T11:54:24.353Z,3037
2019-05-02T11:55:28.889Z,2896
2019-05-02T11:56:24.309Z,4038
2019-05-02T11:57:28.697Z,4545
2019-05-02T11:58:24.321Z,3408
2019-05-02T11:59:28.165Z,2126
2019-05-02T12:00:24.361Z,2041
2019-05-02T12:01:35.449Z,4072
2019-05-02T12:02:24.288Z,4185
2019-05-02T12:03:28.133Z,4190
2019-05-02T12:04:24.278Z,4156
2019-05-02T12:05:26.640Z,3268
2019-05-02T12:06:24.327Z,3915
2019-05-02T12:07:24.354Z,4224
2019-05-02T12:08:24.287Z,4398
2019-05-02T12:09:24.282Z,4443
2019-05-02T12:10:27.955Z,4488
2019-05-02T12:11:24.289Z,4460
2019-05-02T12:12:27.296Z,4016
2019-05-02T12:13:24.366Z,4421
2019-05-02T12:14:27.373Z,3150
2019-05-02T12:15:24.382Z,4089
2019-05-02T12:16:24.316Z,2075
2019-05-02T12:17:24.376Z,2221
2019-05-02T12:18:24.327Z,4359
2019-05-02T12:19:24.296Z,4680
2019-05-02T12:20:28.682Z,3195
2019-05-02T12:21:24.432Z,5000
2019-05-02T12:22:24.379Z,5073
2019-05-02T12:23:24.362Z,4702
2019-05-02T12:24:24.362Z,4280
2019-05-02T12:25:24.367Z,4674
2019-05-02T12:26:24.298Z,4466
2019-05-02T12:27:24.366Z,3240
2019-05-02T12:28:24.303Z,3543
2019-05-02T12:29:24.365Z,4291
2019-05-02T12:30:24.405Z,4275
2019-05-02T12:31:24.302Z,2953
2019-05-02T12:32:24.369Z,3695
2019-05-02T12:33:24.344Z,2278
2019-05-02T12:34:24.341Z,2531
2019-05-02T12:35:24.384Z,4404
2019-05-02T12:36:24.382Z,2711
2019-05-02T12:37:24.312Z,3206
2019-05-02T12:38:24.392Z,4618
2019-05-02T12:39:24.345Z,2649
2019-05-02T12:40:24.387Z,2373
2019-05-02T12:41:25.296Z,2823
2019-05-02T12:42:24.778Z,4455
2019-05-02T12:43:24.440Z,3712
2019-05-02T12:44:24.318Z,2868
2019-05-02T12:45:24.323Z,2576
2019-05-02T12:46:24.406Z,2919
2019-05-02T12:47:24.319Z,2385
2019-05-02T12:48:24.293Z,2103
2019-05-02T12:49:27.842Z,2244
2019-05-02T12:50:24.320Z,2356
2019-05-02T12:51:24.362Z,2390
2019-05-02T12:52:24.321Z,2441
2019-05-02T12:53:24.312Z,2221
2019-05-02T12:54:24.385Z,2334
2019-05-02T12:55:24.422Z,4123
2019-05-02T12:56:24.319Z,2778
2019-05-02T12:57:24.390Z,4584
2019-05-02T12:58:24.316Z,4303
2019-05-02T12:59:24.387Z,3285
2019-05-02T13:00:24.328Z,4573
2019-05-02T13:01:24.405Z,3735
2019-05-02T13:02:24.333Z,4342
2019-05-02T13:03:24.393Z,4331
2019-05-02T13:04:24.321Z,3481
2019-05-02T13:05:24.279Z,3566
2019-05-02T13:06:24.338Z,4252
2019-05-02T13:07:24.320Z,4612
2019-05-02T13:08:25.347Z,3431
2019-05-02T13:09:24.325Z,4460
2019-05-02T13:10:24.399Z,3352
2019-05-02T13:11:24.334Z,4376
2019-05-02T13:12:24.399Z,3729
2019-05-02T13:13:24.378Z,3195
2019-05-02T13:14:24.413Z,2683
2019-05-02T13:15:24.441Z,2520
2019-05-02T13:16:24.419Z,2401
2019-05-02T13:17:24.346Z,3886
2019-05-02T13:18:26.927Z,4185
2019-05-02T13:19:37.217Z,3993
2019-05-02T13:20:25.076Z,3965
2019-05-02T13:21:24.421Z,3881
2019-05-02T13:22:24.353Z,3746
2019-05-02T13:23:27.412Z,3566
2019-05-02T13:24:29.194Z,3341
2019-05-02T13:25:27.365Z,1878
2019-05-02T13:26:27.071Z,2981
2019-05-02T13:27:24.482Z,3116
2019-05-02T13:28:25.764Z,3161
2019-05-02T13:29:24.423Z,3195
2019-05-02T13:30:24.412Z,3375
2019-05-02T13:31:24.428Z,3521
2019-05-02T13:32:24.365Z,3470
2019-05-02T13:33:27.358Z,3397
2019-05-02T13:34:24.373Z,2739
2019-05-02T13:35:24.362Z,3571
2019-05-02T13:36:24.427Z,3661
2019-05-02T13:37:24.435Z,3588
2019-05-02T13:38:24.445Z,3521
2019-05-02T13:39:24.431Z,2930
2019-05-02T13:40:24.362Z,3178
2019-05-02T13:41:24.389Z,2970
2019-05-02T13:42:24.376Z,2761
2019-05-02T13:43:24.443Z,3026
2019-05-02T13:44:24.331Z,3290
2019-05-02T13:45:24.364Z,3566
2019-05-02T13:46:26.755Z,3566
2019-05-02T13:47:24.381Z,3481
2019-05-02T13:48:24.379Z,3352
2019-05-02T13:49:24.367Z,3211
2019-05-02T13:50:24.426Z,3313
2019-05-02T13:51:24.466Z,3386
2019-05-02T13:52:24.500Z,3150
2019-05-02T13:53:24.309Z,3183